sensor_id;sensor_type;location;lat;lon;timestamp;P1;durP1;ratioP1;P2;durP2;ratioP2
20533;SDS011;12929;56.822;26.056;2023-08-07T00:00:23;17.60;;;14.15;;
20533;SDS011;12929;56.822;26.056;2023-08-07T00:02:51;16.50;;;13.50;;
20533;SDS011;12929;56.822;26.056;2023-08-07T00:05:19;16.33;;;14.43;;
20533;SDS011;12929;56.822;26.056;2023-08-07T00:07:47;20.60;;;15.18;;
20533;SDS011;12929;56.822;26.056;2023-08-07T00:10:14;15.80;;;13.82;;
20533;SDS011;12929;56.822;26.056;2023-08-07T00:12:42;18.85;;;14.32;;
20533;SDS011;12929;56.822;26.056;2023-08-07T00:15:10;17.65;;;14.02;;
20533;SDS011;12929;56.822;26.056;2023-08-07T00:17:38;16.92;;;14.80;;
20533;SDS011;12929;56.822;26.056;2023-08-07T00:20:06;20.48;;;14.57;;
20533;SDS011;12929;56.822;26.056;2023-08-07T00:22:34;20.80;;;15.45;;
20533;SDS011;12929;56.822;26.056;2023-08-07T00:25:02;18.58;;;15.02;;
20533;SDS011;12929;56.822;26.056;2023-08-07T00:27:30;16.77;;;14.63;;
20533;SDS011;12929;56.822;26.056;2023-08-07T00:29:57;16.35;;;13.43;;
20533;SDS011;12929;56.822;26.056;2023-08-07T00:32:25;17.85;;;14.57;;
20533;SDS011;12929;56.822;26.056;2023-08-07T00:34:52;16.75;;;14.07;;
20533;SDS011;12929;56.822;26.056;2023-08-07T00:37:20;16.48;;;14.70;;
20533;SDS011;12929;56.822;26.056;2023-08-07T00:39:47;16.17;;;14.32;;
20533;SDS011;12929;56.822;26.056;2023-08-07T00:42:15;16.80;;;15.00;;
20533;SDS011;12929;56.822;26.056;2023-08-07T00:44:42;18.08;;;14.65;;
20533;SDS011;12929;56.822;26.056;2023-08-07T00:47:10;20.77;;;14.25;;
20533;SDS011;12929;56.822;26.056;2023-08-07T00:49:38;18.13;;;15.13;;
20533;SDS011;12929;56.822;26.056;2023-08-07T00:52:06;17.60;;;14.27;;
20533;SDS011;12929;56.822;26.056;2023-08-07T00:54:34;20.98;;;15.38;;
20533;SDS011;12929;56.822;26.056;2023-08-07T00:57:11;17.83;;;14.20;;
20533;SDS011;12929;56.822;26.056;2023-08-07T00:59:41;18.60;;;14.38;;
20533;SDS011;12929;56.822;26.056;2023-08-07T01:02:10;22.02;;;14.55;;
20533;SDS011;12929;56.822;26.056;2023-08-07T01:04:40;17.45;;;14.27;;
20533;SDS011;12929;56.822;26.056;2023-08-07T01:07:08;18.20;;;15.00;;
20533;SDS011;12929;56.822;26.056;2023-08-07T01:09:35;16.63;;;14.63;;
20533;SDS011;12929;56.822;26.056;2023-08-07T01:12:13;20.23;;;14.98;;
20533;SDS011;12929;56.822;26.056;2023-08-07T01:15:03;16.77;;;14.85;;
20533;SDS011;12929;56.822;26.056;2023-08-07T01:17:48;19.38;;;15.48;;
20533;SDS011;12929;56.822;26.056;2023-08-07T01:20:19;20.38;;;14.43;;
20533;SDS011;12929;56.822;26.056;2023-08-07T01:22:46;17.45;;;14.75;;
20533;SDS011;12929;56.822;26.056;2023-08-07T01:25:14;18.27;;;14.85;;
20533;SDS011;12929;56.822;26.056;2023-08-07T01:27:44;17.10;;;14.45;;
20533;SDS011;12929;56.822;26.056;2023-08-07T01:30:22;17.63;;;13.65;;
20533;SDS011;12929;56.822;26.056;2023-08-07T01:35:26;19.92;;;15.25;;
20533;SDS011;12929;56.822;26.056;2023-08-07T01:37:56;18.80;;;14.50;;
20533;SDS011;12929;56.822;26.056;2023-08-07T01:40:25;17.10;;;14.07;;
20533;SDS011;12929;56.822;26.056;2023-08-07T01:42:55;18.85;;;15.07;;
20533;SDS011;12929;56.822;26.056;2023-08-07T01:45:26;21.40;;;14.65;;
20533;SDS011;12929;56.822;26.056;2023-08-07T01:47:54;19.35;;;14.43;;
20533;SDS011;12929;56.822;26.056;2023-08-07T01:50:23;20.73;;;15.65;;
20533;SDS011;12929;56.822;26.056;2023-08-07T01:52:51;16.88;;;14.02;;
20533;SDS011;12929;56.822;26.056;2023-08-07T01:55:19;19.75;;;15.20;;
20533;SDS011;12929;56.822;26.056;2023-08-07T01:57:51;17.85;;;14.85;;
20533;SDS011;12929;56.822;26.056;2023-08-07T02:00:19;22.42;;;15.07;;
20533;SDS011;12929;56.822;26.056;2023-08-07T02:02:47;16.92;;;15.13;;
20533;SDS011;12929;56.822;26.056;2023-08-07T02:05:15;18.65;;;14.20;;
20533;SDS011;12929;56.822;26.056;2023-08-07T02:07:43;18.15;;;14.35;;
20533;SDS011;12929;56.822;26.056;2023-08-07T02:10:11;19.35;;;14.82;;
20533;SDS011;12929;56.822;26.056;2023-08-07T02:12:39;17.92;;;14.40;;
20533;SDS011;12929;56.822;26.056;2023-08-07T02:15:07;18.85;;;14.65;;
20533;SDS011;12929;56.822;26.056;2023-08-07T02:17:35;17.58;;;14.45;;
20533;SDS011;12929;56.822;26.056;2023-08-07T02:20:05;18.23;;;15.75;;
20533;SDS011;12929;56.822;26.056;2023-08-07T02:22:33;20.35;;;14.63;;
20533;SDS011;12929;56.822;26.056;2023-08-07T02:25:01;18.00;;;14.98;;
20533;SDS011;12929;56.822;26.056;2023-08-07T02:27:28;17.92;;;15.27;;
20533;SDS011;12929;56.822;26.056;2023-08-07T02:29:56;18.60;;;14.55;;
20533;SDS011;12929;56.822;26.056;2023-08-07T02:32:23;21.27;;;14.95;;
20533;SDS011;12929;56.822;26.056;2023-08-07T02:34:53;18.33;;;15.63;;
20533;SDS011;12929;56.822;26.056;2023-08-07T02:37:22;17.20;;;13.90;;
20533;SDS011;12929;56.822;26.056;2023-08-07T02:39:50;17.30;;;15.20;;
20533;SDS011;12929;56.822;26.056;2023-08-07T02:42:18;20.20;;;15.07;;
20533;SDS011;12929;56.822;26.056;2023-08-07T02:44:46;18.92;;;14.35;;
20533;SDS011;12929;56.822;26.056;2023-08-07T02:47:13;21.52;;;16.25;;
20533;SDS011;12929;56.822;26.056;2023-08-07T02:49:41;21.45;;;15.98;;
20533;SDS011;12929;56.822;26.056;2023-08-07T02:52:08;20.33;;;14.88;;
20533;SDS011;12929;56.822;26.056;2023-08-07T02:54:36;18.02;;;15.88;;
20533;SDS011;12929;56.822;26.056;2023-08-07T02:57:03;20.10;;;15.40;;
20533;SDS011;12929;56.822;26.056;2023-08-07T02:59:31;17.40;;;15.38;;
20533;SDS011;12929;56.822;26.056;2023-08-07T03:01:58;20.48;;;16.92;;
20533;SDS011;12929;56.822;26.056;2023-08-07T03:04:26;21.42;;;14.82;;
20533;SDS011;12929;56.822;26.056;2023-08-07T03:06:53;20.77;;;16.63;;
20533;SDS011;12929;56.822;26.056;2023-08-07T03:09:22;18.35;;;15.65;;
20533;SDS011;12929;56.822;26.056;2023-08-07T03:11:49;19.48;;;15.70;;
20533;SDS011;12929;56.822;26.056;2023-08-07T03:14:17;21.27;;;16.00;;
20533;SDS011;12929;56.822;26.056;2023-08-07T03:16:45;17.83;;;15.35;;
20533;SDS011;12929;56.822;26.056;2023-08-07T03:19:12;20.92;;;16.13;;
20533;SDS011;12929;56.822;26.056;2023-08-07T03:21:40;20.92;;;16.73;;
20533;SDS011;12929;56.822;26.056;2023-08-07T03:24:08;20.90;;;15.88;;
20533;SDS011;12929;56.822;26.056;2023-08-07T03:26:38;19.90;;;15.88;;
20533;SDS011;12929;56.822;26.056;2023-08-07T03:29:06;18.95;;;16.38;;
20533;SDS011;12929;56.822;26.056;2023-08-07T03:31:33;19.55;;;16.70;;
20533;SDS011;12929;56.822;26.056;2023-08-07T03:34:02;19.90;;;14.82;;
20533;SDS011;12929;56.822;26.056;2023-08-07T03:36:30;20.75;;;15.80;;
20533;SDS011;12929;56.822;26.056;2023-08-07T03:38:57;20.40;;;15.52;;
20533;SDS011;12929;56.822;26.056;2023-08-07T03:41:24;18.35;;;15.60;;
20533;SDS011;12929;56.822;26.056;2023-08-07T03:43:52;22.25;;;16.02;;
20533;SDS011;12929;56.822;26.056;2023-08-07T03:46:19;19.75;;;16.25;;
20533;SDS011;12929;56.822;26.056;2023-08-07T03:48:47;20.70;;;15.02;;
20533;SDS011;12929;56.822;26.056;2023-08-07T03:51:17;19.15;;;15.30;;
20533;SDS011;12929;56.822;26.056;2023-08-07T03:53:48;21.17;;;15.32;;
20533;SDS011;12929;56.822;26.056;2023-08-07T03:56:16;18.27;;;16.25;;
20533;SDS011;12929;56.822;26.056;2023-08-07T03:58:44;18.50;;;15.30;;
20533;SDS011;12929;56.822;26.056;2023-08-07T04:01:12;20.70;;;16.33;;
20533;SDS011;12929;56.822;26.056;2023-08-07T04:03:40;20.58;;;16.88;;
20533;SDS011;12929;56.822;26.056;2023-08-07T04:06:08;24.00;;;16.58;;
20533;SDS011;12929;56.822;26.056;2023-08-07T04:08:37;22.75;;;17.00;;
20533;SDS011;12929;56.822;26.056;2023-08-07T04:11:05;18.10;;;15.50;;
20533;SDS011;12929;56.822;26.056;2023-08-07T04:13:34;23.27;;;16.75;;
20533;SDS011;12929;56.822;26.056;2023-08-07T04:16:02;22.48;;;15.90;;
20533;SDS011;12929;56.822;26.056;2023-08-07T04:18:32;18.33;;;15.90;;
20533;SDS011;12929;56.822;26.056;2023-08-07T04:21:01;20.05;;;16.38;;
20533;SDS011;12929;56.822;26.056;2023-08-07T04:23:30;17.92;;;15.32;;
20533;SDS011;12929;56.822;26.056;2023-08-07T04:25:58;20.58;;;16.48;;
20533;SDS011;12929;56.822;26.056;2023-08-07T04:28:29;20.17;;;16.55;;
20533;SDS011;12929;56.822;26.056;2023-08-07T04:30:57;20.95;;;16.58;;
20533;SDS011;12929;56.822;26.056;2023-08-07T04:33:25;18.30;;;15.68;;
20533;SDS011;12929;56.822;26.056;2023-08-07T04:35:52;18.35;;;15.85;;
20533;SDS011;12929;56.822;26.056;2023-08-07T04:38:20;19.55;;;16.77;;
20533;SDS011;12929;56.822;26.056;2023-08-07T04:40:48;23.35;;;17.13;;
20533;SDS011;12929;56.822;26.056;2023-08-07T04:43:17;20.30;;;16.20;;
20533;SDS011;12929;56.822;26.056;2023-08-07T04:45:48;20.77;;;16.85;;
20533;SDS011;12929;56.822;26.056;2023-08-07T04:48:16;21.45;;;16.92;;
20533;SDS011;12929;56.822;26.056;2023-08-07T04:50:45;19.00;;;16.00;;
20533;SDS011;12929;56.822;26.056;2023-08-07T04:53:12;20.25;;;16.40;;
20533;SDS011;12929;56.822;26.056;2023-08-07T04:55:40;21.60;;;16.13;;
20533;SDS011;12929;56.822;26.056;2023-08-07T04:58:08;22.92;;;16.98;;
20533;SDS011;12929;56.822;26.056;2023-08-07T05:00:35;19.10;;;16.33;;
20533;SDS011;12929;56.822;26.056;2023-08-07T05:03:03;18.70;;;15.98;;
20533;SDS011;12929;56.822;26.056;2023-08-07T05:05:31;21.05;;;14.93;;
20533;SDS011;12929;56.822;26.056;2023-08-07T05:07:58;18.52;;;15.73;;
20533;SDS011;12929;56.822;26.056;2023-08-07T05:10:26;20.50;;;17.05;;
20533;SDS011;12929;56.822;26.056;2023-08-07T05:12:54;18.65;;;15.35;;
20533;SDS011;12929;56.822;26.056;2023-08-07T05:15:23;18.20;;;15.43;;
20533;SDS011;12929;56.822;26.056;2023-08-07T05:17:51;18.65;;;16.40;;
20533;SDS011;12929;56.822;26.056;2023-08-07T05:20:19;21.10;;;15.73;;
20533;SDS011;12929;56.822;26.056;2023-08-07T05:22:47;21.67;;;16.08;;
20533;SDS011;12929;56.822;26.056;2023-08-07T05:25:14;18.85;;;16.15;;
20533;SDS011;12929;56.822;26.056;2023-08-07T05:27:43;18.50;;;15.38;;
20533;SDS011;12929;56.822;26.056;2023-08-07T05:30:12;17.63;;;15.23;;
20533;SDS011;12929;56.822;26.056;2023-08-07T05:32:39;20.00;;;15.65;;
20533;SDS011;12929;56.822;26.056;2023-08-07T05:35:08;20.85;;;17.13;;
20533;SDS011;12929;56.822;26.056;2023-08-07T05:37:36;20.30;;;16.05;;
20533;SDS011;12929;56.822;26.056;2023-08-07T05:40:04;20.88;;;15.35;;
20533;SDS011;12929;56.822;26.056;2023-08-07T05:42:32;20.92;;;16.52;;
20533;SDS011;12929;56.822;26.056;2023-08-07T05:45:02;18.83;;;16.25;;
20533;SDS011;12929;56.822;26.056;2023-08-07T05:47:32;20.88;;;15.85;;
20533;SDS011;12929;56.822;26.056;2023-08-07T05:50:00;18.05;;;15.10;;
20533;SDS011;12929;56.822;26.056;2023-08-07T05:52:28;19.98;;;15.52;;
20533;SDS011;12929;56.822;26.056;2023-08-07T05:54:55;16.65;;;14.88;;
20533;SDS011;12929;56.822;26.056;2023-08-07T05:57:23;18.98;;;15.38;;
20533;SDS011;12929;56.822;26.056;2023-08-07T05:59:51;19.58;;;14.48;;
20533;SDS011;12929;56.822;26.056;2023-08-07T06:02:18;19.85;;;15.32;;
20533;SDS011;12929;56.822;26.056;2023-08-07T06:04:46;20.98;;;15.27;;
20533;SDS011;12929;56.822;26.056;2023-08-07T06:07:15;20.85;;;15.10;;
20533;SDS011;12929;56.822;26.056;2023-08-07T06:09:43;17.65;;;14.95;;
20533;SDS011;12929;56.822;26.056;2023-08-07T06:12:10;19.80;;;15.18;;
20533;SDS011;12929;56.822;26.056;2023-08-07T06:14:40;19.17;;;15.50;;
20533;SDS011;12929;56.822;26.056;2023-08-07T06:17:10;18.48;;;15.38;;
20533;SDS011;12929;56.822;26.056;2023-08-07T06:19:37;19.45;;;15.23;;
20533;SDS011;12929;56.822;26.056;2023-08-07T06:22:05;18.95;;;13.88;;
20533;SDS011;12929;56.822;26.056;2023-08-07T06:24:34;20.55;;;15.65;;
20533;SDS011;12929;56.822;26.056;2023-08-07T06:27:02;19.55;;;15.27;;
20533;SDS011;12929;56.822;26.056;2023-08-07T06:29:30;21.38;;;14.85;;
20533;SDS011;12929;56.822;26.056;2023-08-07T06:31:59;20.52;;;14.60;;
20533;SDS011;12929;56.822;26.056;2023-08-07T06:34:29;16.00;;;14.40;;
20533;SDS011;12929;56.822;26.056;2023-08-07T06:36:58;20.67;;;15.57;;
20533;SDS011;12929;56.822;26.056;2023-08-07T06:39:26;20.60;;;15.20;;
20533;SDS011;12929;56.822;26.056;2023-08-07T06:41:55;19.25;;;15.55;;
20533;SDS011;12929;56.822;26.056;2023-08-07T06:44:31;17.08;;;14.45;;
20533;SDS011;12929;56.822;26.056;2023-08-07T06:47:01;20.98;;;15.43;;
20533;SDS011;12929;56.822;26.056;2023-08-07T06:49:30;19.13;;;14.65;;
20533;SDS011;12929;56.822;26.056;2023-08-07T06:52:00;18.65;;;14.00;;
20533;SDS011;12929;56.822;26.056;2023-08-07T06:54:27;18.17;;;14.88;;
20533;SDS011;12929;56.822;26.056;2023-08-07T06:56:57;17.67;;;14.07;;
20533;SDS011;12929;56.822;26.056;2023-08-07T06:59:25;17.42;;;14.25;;
20533;SDS011;12929;56.822;26.056;2023-08-07T07:01:53;18.90;;;13.35;;
20533;SDS011;12929;56.822;26.056;2023-08-07T07:04:22;21.17;;;13.88;;
20533;SDS011;12929;56.822;26.056;2023-08-07T07:06:51;17.20;;;14.52;;
20533;SDS011;12929;56.822;26.056;2023-08-07T07:09:20;18.85;;;14.00;;
20533;SDS011;12929;56.822;26.056;2023-08-07T07:11:48;17.23;;;14.23;;
20533;SDS011;12929;56.822;26.056;2023-08-07T07:14:15;19.10;;;14.05;;
20533;SDS011;12929;56.822;26.056;2023-08-07T07:16:45;18.45;;;13.60;;
20533;SDS011;12929;56.822;26.056;2023-08-07T07:19:12;16.25;;;13.63;;
20533;SDS011;12929;56.822;26.056;2023-08-07T07:21:40;15.38;;;13.80;;
20533;SDS011;12929;56.822;26.056;2023-08-07T07:24:08;15.43;;;13.70;;
20533;SDS011;12929;56.822;26.056;2023-08-07T07:26:35;18.48;;;13.95;;
20533;SDS011;12929;56.822;26.056;2023-08-07T07:29:03;19.63;;;12.88;;
20533;SDS011;12929;56.822;26.056;2023-08-07T07:31:30;17.38;;;13.00;;
20533;SDS011;12929;56.822;26.056;2023-08-07T07:33:58;17.25;;;13.23;;
20533;SDS011;12929;56.822;26.056;2023-08-07T07:36:26;18.38;;;13.35;;
20533;SDS011;12929;56.822;26.056;2023-08-07T07:38:53;23.45;;;13.73;;
20533;SDS011;12929;56.822;26.056;2023-08-07T07:41:21;18.25;;;13.18;;
20533;SDS011;12929;56.822;26.056;2023-08-07T07:43:49;17.23;;;13.10;;
20533;SDS011;12929;56.822;26.056;2023-08-07T07:46:17;15.07;;;12.13;;
20533;SDS011;12929;56.822;26.056;2023-08-07T07:48:44;16.38;;;12.70;;
20533;SDS011;12929;56.822;26.056;2023-08-07T07:51:12;15.63;;;12.98;;
20533;SDS011;12929;56.822;26.056;2023-08-07T07:53:40;17.20;;;12.98;;
20533;SDS011;12929;56.822;26.056;2023-08-07T07:56:08;16.23;;;13.10;;
20533;SDS011;12929;56.822;26.056;2023-08-07T07:58:37;19.35;;;13.07;;
20533;SDS011;12929;56.822;26.056;2023-08-07T08:01:04;22.05;;;13.20;;
20533;SDS011;12929;56.822;26.056;2023-08-07T08:03:32;17.30;;;13.15;;
20533;SDS011;12929;56.822;26.056;2023-08-07T08:06:00;18.10;;;12.52;;
20533;SDS011;12929;56.822;26.056;2023-08-07T08:08:31;20.08;;;13.05;;
20533;SDS011;12929;56.822;26.056;2023-08-07T08:10:59;13.32;;;12.02;;
20533;SDS011;12929;56.822;26.056;2023-08-07T08:13:30;14.20;;;12.55;;
20533;SDS011;12929;56.822;26.056;2023-08-07T08:15:58;14.77;;;13.23;;
20533;SDS011;12929;56.822;26.056;2023-08-07T08:18:26;16.20;;;12.60;;
20533;SDS011;12929;56.822;26.056;2023-08-07T08:20:54;15.02;;;12.27;;
20533;SDS011;12929;56.822;26.056;2023-08-07T08:23:21;16.92;;;13.35;;
20533;SDS011;12929;56.822;26.056;2023-08-07T08:25:49;17.48;;;12.63;;
20533;SDS011;12929;56.822;26.056;2023-08-07T08:28:17;14.48;;;12.25;;
20533;SDS011;12929;56.822;26.056;2023-08-07T08:30:45;15.55;;;12.73;;
20533;SDS011;12929;56.822;26.056;2023-08-07T08:33:12;21.00;;;12.55;;
20533;SDS011;12929;56.822;26.056;2023-08-07T08:35:41;18.55;;;13.10;;
20533;SDS011;12929;56.822;26.056;2023-08-07T08:38:09;15.77;;;12.95;;
20533;SDS011;12929;56.822;26.056;2023-08-07T08:40:37;16.67;;;12.95;;
20533;SDS011;12929;56.822;26.056;2023-08-07T08:43:05;16.75;;;12.85;;
20533;SDS011;12929;56.822;26.056;2023-08-07T08:45:33;18.33;;;14.18;;
20533;SDS011;12929;56.822;26.056;2023-08-07T08:48:04;16.50;;;14.80;;
20533;SDS011;12929;56.822;26.056;2023-08-07T08:50:33;14.18;;;12.77;;
20533;SDS011;12929;56.822;26.056;2023-08-07T08:53:02;15.43;;;13.73;;
20533;SDS011;12929;56.822;26.056;2023-08-07T08:55:31;18.02;;;13.13;;
20533;SDS011;12929;56.822;26.056;2023-08-07T08:57:59;14.70;;;12.50;;
20533;SDS011;12929;56.822;26.056;2023-08-07T09:00:27;14.32;;;12.80;;
20533;SDS011;12929;56.822;26.056;2023-08-07T09:02:57;16.27;;;12.60;;
20533;SDS011;12929;56.822;26.056;2023-08-07T09:05:25;19.50;;;14.40;;
20533;SDS011;12929;56.822;26.056;2023-08-07T09:07:54;15.00;;;13.27;;
20533;SDS011;12929;56.822;26.056;2023-08-07T09:10:23;15.90;;;12.75;;
20533;SDS011;12929;56.822;26.056;2023-08-07T09:15:32;18.48;;;12.70;;
20533;SDS011;12929;56.822;26.056;2023-08-07T09:18:02;17.23;;;12.65;;
20533;SDS011;12929;56.822;26.056;2023-08-07T09:20:35;15.52;;;12.68;;
20533;SDS011;12929;56.822;26.056;2023-08-07T09:23:06;16.38;;;11.68;;
20533;SDS011;12929;56.822;26.056;2023-08-07T09:25:34;16.35;;;12.35;;
20533;SDS011;12929;56.822;26.056;2023-08-07T09:28:05;14.95;;;12.23;;
20533;SDS011;12929;56.822;26.056;2023-08-07T09:30:34;16.65;;;12.18;;
20533;SDS011;12929;56.822;26.056;2023-08-07T09:33:04;14.50;;;12.30;;
20533;SDS011;12929;56.822;26.056;2023-08-07T09:35:33;19.70;;;12.75;;
20533;SDS011;12929;56.822;26.056;2023-08-07T09:38:01;13.30;;;11.93;;
20533;SDS011;12929;56.822;26.056;2023-08-07T09:40:29;12.90;;;10.60;;
20533;SDS011;12929;56.822;26.056;2023-08-07T09:43:00;14.57;;;11.38;;
20533;SDS011;12929;56.822;26.056;2023-08-07T09:45:29;12.38;;;11.18;;
20533;SDS011;12929;56.822;26.056;2023-08-07T09:47:59;13.80;;;10.82;;
20533;SDS011;12929;56.822;26.056;2023-08-07T09:50:30;14.35;;;11.85;;
20533;SDS011;12929;56.822;26.056;2023-08-07T09:52:58;15.82;;;11.88;;
20533;SDS011;12929;56.822;26.056;2023-08-07T09:55:26;14.55;;;10.90;;
20533;SDS011;12929;56.822;26.056;2023-08-07T09:57:54;14.02;;;10.85;;
20533;SDS011;12929;56.822;26.056;2023-08-07T10:00:22;14.25;;;10.88;;
20533;SDS011;12929;56.822;26.056;2023-08-07T10:02:50;13.15;;;10.70;;
20533;SDS011;12929;56.822;26.056;2023-08-07T10:05:18;14.88;;;10.75;;
20533;SDS011;12929;56.822;26.056;2023-08-07T10:07:46;12.52;;;11.32;;
20533;SDS011;12929;56.822;26.056;2023-08-07T10:10:14;13.02;;;11.70;;
20533;SDS011;12929;56.822;26.056;2023-08-07T10:12:42;13.68;;;11.13;;
20533;SDS011;12929;56.822;26.056;2023-08-07T10:15:13;14.80;;;11.82;;
20533;SDS011;12929;56.822;26.056;2023-08-07T10:17:42;16.20;;;11.10;;
20533;SDS011;12929;56.822;26.056;2023-08-07T10:20:11;15.13;;;12.07;;
20533;SDS011;12929;56.822;26.056;2023-08-07T10:22:39;14.90;;;12.45;;
20533;SDS011;12929;56.822;26.056;2023-08-07T10:25:09;13.73;;;11.90;;
20533;SDS011;12929;56.822;26.056;2023-08-07T10:27:38;16.35;;;11.93;;
20533;SDS011;12929;56.822;26.056;2023-08-07T10:30:08;13.93;;;11.80;;
20533;SDS011;12929;56.822;26.056;2023-08-07T10:32:41;16.25;;;12.15;;
20533;SDS011;12929;56.822;26.056;2023-08-07T10:35:22;13.55;;;12.00;;
20533;SDS011;12929;56.822;26.056;2023-08-07T10:37:52;15.60;;;12.93;;
20533;SDS011;12929;56.822;26.056;2023-08-07T10:40:21;15.70;;;12.50;;
20533;SDS011;12929;56.822;26.056;2023-08-07T10:42:55;14.10;;;11.70;;
20533;SDS011;12929;56.822;26.056;2023-08-07T10:45:38;16.00;;;12.57;;
20533;SDS011;12929;56.822;26.056;2023-08-07T10:48:07;14.35;;;12.80;;
20533;SDS011;12929;56.822;26.056;2023-08-07T10:50:49;14.43;;;12.93;;
20533;SDS011;12929;56.822;26.056;2023-08-07T10:56:03;15.60;;;12.13;;
20533;SDS011;12929;56.822;26.056;2023-08-07T10:58:37;14.98;;;11.82;;
20533;SDS011;12929;56.822;26.056;2023-08-07T11:01:19;14.45;;;12.15;;
20533;SDS011;12929;56.822;26.056;2023-08-07T11:03:51;14.50;;;12.02;;
20533;SDS011;12929;56.822;26.056;2023-08-07T11:06:28;12.88;;;11.68;;
20533;SDS011;12929;56.822;26.056;2023-08-07T11:09:01;16.42;;;11.50;;
20533;SDS011;12929;56.822;26.056;2023-08-07T11:11:39;14.10;;;12.32;;
20533;SDS011;12929;56.822;26.056;2023-08-07T11:14:12;18.75;;;12.63;;
20533;SDS011;12929;56.822;26.056;2023-08-07T11:16:45;14.65;;;11.68;;
20533;SDS011;12929;56.822;26.056;2023-08-07T11:19:16;14.35;;;11.43;;
20533;SDS011;12929;56.822;26.056;2023-08-07T11:21:44;18.48;;;11.95;;
20533;SDS011;12929;56.822;26.056;2023-08-07T11:24:12;12.73;;;11.50;;
20533;SDS011;12929;56.822;26.056;2023-08-07T11:26:42;13.93;;;11.55;;
20533;SDS011;12929;56.822;26.056;2023-08-07T11:29:15;14.10;;;11.45;;
20533;SDS011;12929;56.822;26.056;2023-08-07T11:31:44;17.38;;;12.18;;
20533;SDS011;12929;56.822;26.056;2023-08-07T11:34:12;14.13;;;12.07;;
20533;SDS011;12929;56.822;26.056;2023-08-07T11:36:43;13.93;;;12.40;;
20533;SDS011;12929;56.822;26.056;2023-08-07T11:39:11;14.10;;;12.00;;
20533;SDS011;12929;56.822;26.056;2023-08-07T11:41:40;15.25;;;12.38;;
20533;SDS011;12929;56.822;26.056;2023-08-07T11:44:08;13.23;;;11.85;;
20533;SDS011;12929;56.822;26.056;2023-08-07T11:46:37;16.27;;;12.40;;
20533;SDS011;12929;56.822;26.056;2023-08-07T11:49:04;18.50;;;12.73;;
20533;SDS011;12929;56.822;26.056;2023-08-07T11:51:32;13.73;;;12.32;;
20533;SDS011;12929;56.822;26.056;2023-08-07T11:54:00;20.25;;;12.63;;
20533;SDS011;12929;56.822;26.056;2023-08-07T11:56:29;16.67;;;12.35;;
20533;SDS011;12929;56.822;26.056;2023-08-07T11:58:57;12.73;;;11.35;;
20533;SDS011;12929;56.822;26.056;2023-08-07T12:01:26;13.63;;;11.45;;
20533;SDS011;12929;56.822;26.056;2023-08-07T12:06:33;16.63;;;10.82;;
20533;SDS011;12929;56.822;26.056;2023-08-07T12:09:02;13.10;;;11.27;;
20533;SDS011;12929;56.822;26.056;2023-08-07T12:11:30;18.83;;;12.38;;
20533;SDS011;12929;56.822;26.056;2023-08-07T12:13:59;14.00;;;11.75;;
20533;SDS011;12929;56.822;26.056;2023-08-07T12:16:34;13.20;;;11.00;;
20533;SDS011;12929;56.822;26.056;2023-08-07T12:19:02;16.42;;;11.90;;
20533;SDS011;12929;56.822;26.056;2023-08-07T12:21:31;12.82;;;11.50;;
20533;SDS011;12929;56.822;26.056;2023-08-07T12:24:00;15.00;;;11.57;;
20533;SDS011;12929;56.822;26.056;2023-08-07T12:26:28;12.57;;;11.27;;
20533;SDS011;12929;56.822;26.056;2023-08-07T12:28:55;14.85;;;12.10;;
20533;SDS011;12929;56.822;26.056;2023-08-07T12:31:23;21.13;;;12.57;;
20533;SDS011;12929;56.822;26.056;2023-08-07T12:33:51;15.23;;;12.15;;
20533;SDS011;12929;56.822;26.056;2023-08-07T12:36:19;14.10;;;11.65;;
20533;SDS011;12929;56.822;26.056;2023-08-07T12:38:47;15.93;;;11.65;;
20533;SDS011;12929;56.822;26.056;2023-08-07T12:41:15;13.20;;;11.07;;
20533;SDS011;12929;56.822;26.056;2023-08-07T12:43:45;17.95;;;11.13;;
20533;SDS011;12929;56.822;26.056;2023-08-07T12:46:14;19.13;;;11.55;;
20533;SDS011;12929;56.822;26.056;2023-08-07T12:48:45;19.42;;;10.68;;
20533;SDS011;12929;56.822;26.056;2023-08-07T12:51:12;12.25;;;10.73;;
20533;SDS011;12929;56.822;26.056;2023-08-07T12:53:40;14.52;;;10.40;;
20533;SDS011;12929;56.822;26.056;2023-08-07T12:56:07;24.38;;;10.38;;
20533;SDS011;12929;56.822;26.056;2023-08-07T12:58:35;15.52;;;11.23;;
20533;SDS011;12929;56.822;26.056;2023-08-07T13:01:06;12.52;;;11.05;;
20533;SDS011;12929;56.822;26.056;2023-08-07T13:03:34;14.93;;;11.20;;
20533;SDS011;12929;56.822;26.056;2023-08-07T13:06:01;14.88;;;10.98;;
20533;SDS011;12929;56.822;26.056;2023-08-07T13:08:32;21.02;;;11.65;;
20533;SDS011;12929;56.822;26.056;2023-08-07T13:11:01;16.08;;;10.55;;
20533;SDS011;12929;56.822;26.056;2023-08-07T13:13:29;16.52;;;11.18;;
20533;SDS011;12929;56.822;26.056;2023-08-07T13:15:57;19.42;;;10.48;;
20533;SDS011;12929;56.822;26.056;2023-08-07T13:18:25;13.02;;;10.43;;
20533;SDS011;12929;56.822;26.056;2023-08-07T13:20:52;7.10;;;6.40;;
20533;SDS011;12929;56.822;26.056;2023-08-07T13:23:20;7.15;;;4.35;;
20533;SDS011;12929;56.822;26.056;2023-08-07T13:25:48;6.38;;;4.43;;
20533;SDS011;12929;56.822;26.056;2023-08-07T13:28:15;4.10;;;3.70;;
20533;SDS011;12929;56.822;26.056;2023-08-07T13:30:44;5.28;;;4.25;;
20533;SDS011;12929;56.822;26.056;2023-08-07T13:33:12;7.80;;;4.00;;
20533;SDS011;12929;56.822;26.056;2023-08-07T13:35:40;6.80;;;4.00;;
20533;SDS011;12929;56.822;26.056;2023-08-07T13:38:07;14.07;;;4.30;;
20533;SDS011;12929;56.822;26.056;2023-08-07T13:40:37;6.35;;;4.00;;
20533;SDS011;12929;56.822;26.056;2023-08-07T13:43:04;7.28;;;4.20;;
20533;SDS011;12929;56.822;26.056;2023-08-07T13:45:36;17.20;;;4.35;;
20533;SDS011;12929;56.822;26.056;2023-08-07T13:48:04;8.65;;;1.80;;
20533;SDS011;12929;56.822;26.056;2023-08-07T13:50:33;11.93;;;1.83;;
20533;SDS011;12929;56.822;26.056;2023-08-07T13:53:01;8.75;;;1.40;;
20533;SDS011;12929;56.822;26.056;2023-08-07T13:55:41;6.53;;;0.80;;
20533;SDS011;12929;56.822;26.056;2023-08-07T13:58:09;3.42;;;1.10;;
20533;SDS011;12929;56.822;26.056;2023-08-07T14:00:36;4.50;;;1.13;;
20533;SDS011;12929;56.822;26.056;2023-08-07T14:03:05;4.30;;;1.02;;
20533;SDS011;12929;56.822;26.056;2023-08-07T14:05:33;7.05;;;1.70;;
20533;SDS011;12929;56.822;26.056;2023-08-07T14:08:02;2.80;;;0.80;;
20533;SDS011;12929;56.822;26.056;2023-08-07T14:10:31;2.38;;;0.52;;
20533;SDS011;12929;56.822;26.056;2023-08-07T14:12:58;1.98;;;0.60;;
20533;SDS011;12929;56.822;26.056;2023-08-07T14:15:26;1.48;;;0.80;;
20533;SDS011;12929;56.822;26.056;2023-08-07T14:17:54;2.20;;;0.68;;
20533;SDS011;12929;56.822;26.056;2023-08-07T14:20:21;3.70;;;1.00;;
20533;SDS011;12929;56.822;26.056;2023-08-07T14:22:50;4.32;;;0.80;;
20533;SDS011;12929;56.822;26.056;2023-08-07T14:25:19;3.78;;;0.80;;
20533;SDS011;12929;56.822;26.056;2023-08-07T14:27:50;3.33;;;0.70;;
20533;SDS011;12929;56.822;26.056;2023-08-07T14:30:17;3.15;;;0.80;;